Time;durP1;ratioP1;P1;durP2;ratioP2;P2;SDS_P1;SDS_P2;PMS_P1;PMS_P2;Temp;Humidity;BMP_temperature;BMP_pressure;BME280_temperature;BME280_humidity;BME280_pressure;Samples;Min_cycle;Max_cycle;Signal;HPM_P1;HPM_P2
2022/05/04 00:01:58;;;;;;;2.88;1.38;;;;;;;;;;5074021;28;20036;-69
2022/05/04 00:04:24;;;;;;;2.45;1.42;;;;;;;;;;5076099;28;20052;-68
2022/05/04 00:06:50;;;;;;;2.75;1.42;;;;;;;;;;5077371;28;20033;-69
2022/05/04 00:09:16;;;;;;;3.95;1.70;;;;;;;;;;5059078;28;20445;-68
2022/05/04 00:11:44;;;;;;;4.15;1.42;;;;;;;;;;5073364;28;20479;-68
2022/05/04 00:14:10;;;;;;;2.95;1.40;;;;;;;;;;5072908;28;20481;-69
2022/05/04 00:16:36;;;;;;;5.05;1.20;;;;;;;;;;5072611;28;20048;-69
2022/05/04 00:19:02;;;;;;;2.97;1.50;;;;;;;;;;5077277;28;20051;-71
2022/05/04 00:21:28;;;;;;;4.95;1.63;;;;;;;;;;5075500;28;20058;-68
2022/05/04 00:23:54;;;;;;;2.78;1.40;;;;;;;;;;5074536;28;20048;-68
2022/05/04 00:26:20;;;;;;;2.63;1.25;;;;;;;;;;5075712;28;20044;-68
2022/05/04 00:28:46;;;;;;;2.25;1.20;;;;;;;;;;5074012;28;20149;-68
2022/05/04 00:31:12;;;;;;;2.90;1.55;;;;;;;;;;5074023;28;20052;-68
2022/05/04 00:33:38;;;;;;;3.55;1.60;;;;;;;;;;5075655;28;20243;-68
2022/05/04 00:36:04;;;;;;;4.97;2.10;;;;;;;;;;5073974;28;20127;-69
2022/05/04 00:38:31;;;;;;;4.53;1.60;;;;;;;;;;5072870;28;20505;-68
2022/05/04 00:40:57;;;;;;;3.15;1.40;;;;;;;;;;5073395;28;20043;-68
2022/05/04 00:43:26;;;;;;;2.55;1.40;;;;;;;;;;5075355;28;20094;-68
2022/05/04 00:45:52;;;;;;;;;;;;;;;;;;5075581;28;20044;-68
2022/05/04 00:48:18;;;;;;;2.92;1.38;;;;;;;;;;5073771;28;19920;-69
2022/05/04 00:50:45;;;;;;;3.85;1.30;;;;;;;;;;5076815;28;20047;-69
2022/05/04 00:53:11;;;;;;;3.03;1.35;;;;;;;;;;5072089;28;20401;-69
2022/05/04 00:55:38;;;;;;;2.88;1.67;;;;;;;;;;5056028;28;20044;-68
2022/05/04 01:00:51;;;;;;;4.03;1.40;;;;;;;;;;5077988;28;20067;-67
2022/05/04 01:03:17;;;;;;;4.20;1.40;;;;;;;;;;5070057;28;20117;-69
2022/05/04 01:05:43;;;;;;;2.45;1.05;;;;;;;;;;5075861;28;20032;-69
2022/05/04 01:08:10;;;;;;;3.30;1.30;;;;;;;;;;5071190;28;20133;-69
2022/05/04 01:10:36;;;;;;;5.95;1.58;;;;;;;;;;5075665;28;20045;-69
2022/05/04 01:13:02;;;;;;;3.50;1.40;;;;;;;;;;5073354;28;20383;-69
2022/05/04 01:15:28;;;;;;;2.17;1.20;;;;;;;;;;5074080;28;20493;-69
2022/05/04 01:17:55;;;;;;;3.22;1.30;;;;;;;;;;5076021;28;20076;-69
2022/05/04 01:20:24;;;;;;;2.60;1.13;;;;;;;;;;5072996;28;20373;-70
2022/05/04 01:22:50;;;;;;;2.40;1.30;;;;;;;;;;5070890;28;20048;-70
2022/05/04 01:25:16;;;;;;;4.38;1.23;;;;;;;;;;5072714;28;20043;-70
2022/05/04 01:27:42;;;;;;;3.83;1.55;;;;;;;;;;5078807;28;20036;-69
2022/05/04 01:30:09;;;;;;;1.90;1.17;;;;;;;;;;5073517;28;20052;-69
2022/05/04 01:32:35;;;;;;;2.40;1.02;;;;;;;;;;5075001;28;20037;-69
2022/05/04 01:35:01;;;;;;;2.50;1.20;;;;;;;;;;5072541;28;20509;-69
2022/05/04 01:37:27;;;;;;;3.33;1.27;;;;;;;;;;5070152;28;20052;-69
2022/05/04 01:39:53;;;;;;;2.72;1.40;;;;;;;;;;5080191;28;20054;-69
2022/05/04 01:42:23;;;;;;;3.15;1.30;;;;;;;;;;5075291;28;20074;-69
2022/05/04 01:44:50;;;;;;;2.53;1.27;;;;;;;;;;5079225;28;20314;-68
2022/05/04 01:47:16;;;;;;;3.85;1.30;;;;;;;;;;5072779;28;20067;-69
2022/05/04 01:49:42;;;;;;;3.33;1.63;;;;;;;;;;5073057;28;20059;-70
2022/05/04 01:52:08;;;;;;;6.22;1.60;;;;;;;;;;5070694;28;20491;-69
2022/05/04 01:54:34;;;;;;;3.08;1.27;;;;;;;;;;5074774;28;20479;-69
2022/05/04 01:57:00;;;;;;;3.75;1.15;;;;;;;;;;5074480;28;20456;-69
2022/05/04 01:59:26;;;;;;;2.22;1.27;;;;;;;;;;5075959;28;20132;-69
2022/05/04 02:01:52;;;;;;;2.72;1.20;;;;;;;;;;5075793;28;20048;-69
2022/05/04 02:04:19;;;;;;;1.98;1.20;;;;;;;;;;5073865;28;20044;-69
2022/05/04 02:06:46;;;;;;;2.78;1.30;;;;;;;;;;5069755;28;20058;-69
2022/05/04 02:09:12;;;;;;;2.63;1.52;;;;;;;;;;5072979;28;20059;-69
2022/05/04 02:11:38;;;;;;;1.60;1.00;;;;;;;;;;5072079;28;20086;-70
2022/05/04 02:14:04;;;;;;;3.90;1.30;;;;;;;;;;5074459;28;20070;-70
2022/05/04 02:16:31;;;;;;;2.88;1.20;;;;;;;;;;5075895;28;20056;-70
2022/05/04 02:18:57;;;;;;;5.68;1.35;;;;;;;;;;5071838;28;20485;-70
2022/05/04 02:21:24;;;;;;;3.40;1.05;;;;;;;;;;5080630;28;20037;-70
2022/05/04 02:23:50;;;;;;;3.17;1.20;;;;;;;;;;5061188;28;20626;-70
2022/05/04 02:26:16;;;;;;;6.80;1.35;;;;;;;;;;5076846;28;20493;-71
2022/05/04 02:28:43;;;;;;;3.08;1.20;;;;;;;;;;5079946;28;20040;-71
2022/05/04 02:31:09;;;;;;;6.25;1.35;;;;;;;;;;5077452;28;20041;-71
2022/05/04 02:33:35;;;;;;;2.33;1.10;;;;;;;;;;5078732;28;20067;-71
2022/05/04 02:38:46;;;;;;;2.72;1.23;;;;;;;;;;5080111;28;20047;-71
2022/05/04 02:41:12;;;;;;;2.15;1.20;;;;;;;;;;5077734;28;20409;-71
2022/05/04 02:43:39;;;;;;;3.03;1.35;;;;;;;;;;5077532;28;20044;-71
2022/05/04 02:46:15;;;;;;;3.33;1.33;;;;;;;;;;5080598;28;20050;-69
2022/05/04 02:48:41;;;;;;;2.63;1.15;;;;;;;;;;5077658;28;20047;-69
2022/05/04 02:51:08;;;;;;;4.40;1.40;;;;;;;;;;5078745;28;20397;-69
2022/05/04 02:53:34;;;;;;;2.72;1.30;;;;;;;;;;5081119;28;20089;-69
2022/05/04 02:56:01;;;;;;;3.25;1.30;;;;;;;;;;5075110;28;20098;-68
2022/05/04 02:58:27;;;;;;;2.20;1.10;;;;;;;;;;5075854;28;20410;-69
2022/05/04 03:00:53;;;;;;;3.95;1.27;;;;;;;;;;5077872;28;20048;-71
2022/05/04 03:03:19;;;;;;;2.55;1.40;;;;;;;;;;5077705;28;20078;-71
2022/05/04 03:05:45;;;;;;;4.05;1.20;;;;;;;;;;5076425;28;20063;-71
2022/05/04 03:08:11;;;;;;;4.72;1.00;;;;;;;;;;5077774;28;20129;-71
2022/05/04 03:13:22;;;;;;;2.45;1.20;;;;;;;;;;5076618;28;20045;-71
2022/05/04 03:15:48;;;;;;;5.15;1.23;;;;;;;;;;5074813;28;20048;-71
2022/05/04 03:18:14;;;;;;;4.55;1.27;;;;;;;;;;5071878;28;20574;-70
2022/05/04 03:20:40;;;;;;;2.15;0.93;;;;;;;;;;5077499;28;20068;-71
2022/05/04 03:23:06;;;;;;;2.72;1.10;;;;;;;;;;5076859;28;20136;-71
2022/05/04 03:25:32;;;;;;;3.03;1.30;;;;;;;;;;5074037;28;20047;-71
2022/05/04 03:27:58;;;;;;;1.90;0.98;;;;;;;;;;5076424;28;20043;-70
2022/05/04 03:30:24;;;;;;;1.83;1.08;;;;;;;;;;5074730;28;20480;-70
2022/05/04 03:32:50;;;;;;;2.90;1.02;;;;;;;;;;5073922;28;20093;-69
2022/05/04 03:35:17;;;;;;;6.25;1.20;;;;;;;;;;5075233;28;20418;-70
2022/05/04 03:37:43;;;;;;;2.75;1.10;;;;;;;;;;5077260;28;20066;-69
2022/05/04 03:40:10;;;;;;;2.42;1.25;;;;;;;;;;5075947;28;20412;-69
2022/05/04 03:42:36;;;;;;;2.63;1.05;;;;;;;;;;5072390;28;20072;-70
2022/05/04 03:45:02;;;;;;;2.35;1.00;;;;;;;;;;5074866;28;20032;-70
2022/05/04 03:47:28;;;;;;;3.60;1.00;;;;;;;;;;5055540;28;20055;-70
2022/05/04 03:49:54;;;;;;;2.97;1.02;;;;;;;;;;5073913;28;20071;-69
2022/05/04 03:52:21;;;;;;;1.63;1.00;;;;;;;;;;5073070;28;20040;-70
2022/05/04 03:54:47;;;;;;;2.45;0.95;;;;;;;;;;5072987;28;20055;-70
2022/05/04 03:57:13;;;;;;;2.33;1.23;;;;;;;;;;5077299;28;20056;-70
2022/05/04 03:59:39;;;;;;;2.65;1.15;;;;;;;;;;5073601;28;20055;-70
2022/05/04 04:02:05;;;;;;;3.88;1.45;;;;;;;;;;5075690;28;20032;-71
2022/05/04 04:04:31;;;;;;;4.18;1.00;;;;;;;;;;5057166;28;20045;-71
2022/05/04 04:06:57;;;;;;;4.10;1.10;;;;;;;;;;5071505;28;20044;-71
2022/05/04 04:09:23;;;;;;;3.20;1.10;;;;;;;;;;5057688;28;20052;-70
2022/05/04 04:11:49;;;;;;;3.85;1.20;;;;;;;;;;5072988;28;20033;-70
2022/05/04 04:14:15;;;;;;;1.90;0.95;;;;;;;;;;5075328;28;20052;-72
2022/05/04 04:16:42;;;;;;;2.70;0.90;;;;;;;;;;5074929;28;20126;-72
2022/05/04 04:19:09;;;;;;;2.55;0.88;;;;;;;;;;5073199;28;20040;-72
2022/05/04 04:21:53;;;;;;;2.95;1.13;;;;;;;;;;5075805;28;20134;-71
2022/05/04 04:24:23;;;;;;;2.05;0.90;;;;;;;;;;5072455;28;20135;-72
2022/05/04 04:26:49;;;;;;;2.55;0.90;;;;;;;;;;5074656;28;20051;-72
2022/05/04 04:29:15;;;;;;;2.10;1.00;;;;;;;;;;5072864;28;20203;-72
2022/05/04 04:31:41;;;;;;;2.75;0.90;;;;;;;;;;5075850;28;20044;-72
2022/05/04 04:34:07;;;;;;;2.50;1.00;;;;;;;;;;5073550;28;20040;-72
2022/05/04 04:36:34;;;;;;;1.80;0.90;;;;;;;;;;5072063;28;20051;-72
2022/05/04 04:39:00;;;;;;;1.13;0.85;;;;;;;;;;5070874;28;20718;-71
2022/05/04 04:41:26;;;;;;;3.70;1.33;;;;;;;;;;5072644;28;20826;-72
2022/05/04 04:43:53;;;;;;;3.03;1.25;;;;;;;;;;5072031;28;20137;-71
2022/05/04 04:46:19;;;;;;;2.55;1.10;;;;;;;;;;5071511;28;20406;-71
2022/05/04 04:48:45;;;;;;;1.10;0.75;;;;;;;;;;5072894;28;20052;-71
2022/05/04 04:51:11;;;;;;;3.05;1.00;;;;;;;;;;5072500;28;20043;-71
2022/05/04 04:53:38;;;;;;;2.65;0.90;;;;;;;;;;5075490;28;20072;-72
2022/05/04 04:56:04;;;;;;;2.13;0.98;;;;;;;;;;5073869;28;20040;-71
2022/05/04 04:58:30;;;;;;;1.50;1.00;;;;;;;;;;5072131;28;20052;-71
2022/05/04 05:00:57;;;;;;;1.85;0.95;;;;;;;;;;5075971;28;20033;-71
2022/05/04 05:03:23;;;;;;;2.45;1.00;;;;;;;;;;5074263;28;20029;-71
2022/05/04 05:05:49;;;;;;;2.78;1.20;;;;;;;;;;5072996;28;20525;-71
2022/05/04 05:08:15;;;;;;;2.95;1.23;;;;;;;;;;5076050;28;20044;-71
2022/05/04 05:10:41;;;;;;;2.05;1.02;;;;;;;;;;5072053;28;20044;-71
2022/05/04 05:13:07;;;;;;;2.88;1.15;;;;;;;;;;5072013;28;20474;-71
2022/05/04 05:18:20;;;;;;;3.17;1.00;;;;;;;;;;5069523;28;20056;-69
2022/05/04 05:20:46;;;;;;;2.95;1.50;;;;;;;;;;5072009;28;20088;-69
2022/05/04 05:23:12;;;;;;;2.47;1.20;;;;;;;;;;5075543;28;20071;-68
2022/05/04 05:28:10;;;;;;;2.10;1.00;;;;;;;;;;4514381;22;20060;-73
2022/05/04 05:30:36;;;;;;;4.85;1.00;;;;;;;;;;5013028;28;20042;-75
2022/05/04 05:33:03;;;;;;;4.75;1.50;;;;;;;;;;5015306;28;20045;-72
2022/05/04 05:35:29;;;;;;;6.18;0.95;;;;;;;;;;5013472;28;20046;-72
2022/05/04 05:37:55;;;;;;;2.55;0.85;;;;;;;;;;5014193;28;20099;-72
2022/05/04 05:40:21;;;;;;;5.55;0.93;;;;;;;;;;5015011;28;20550;-74
2022/05/04 05:42:47;;;;;;;3.47;1.33;;;;;;;;;;5017622;28;20037;-73
2022/05/04 05:45:13;;;;;;;2.08;0.90;;;;;;;;;;5016458;28;20133;-74
2022/05/04 05:47:39;;;;;;;3.22;1.10;;;;;;;;;;5015971;28;20037;-71
2022/05/04 05:50:06;;;;;;;2.20;1.23;;;;;;;;;;5016128;28;20037;-73
2022/05/04 05:52:32;;;;;;;3.95;1.00;;;;;;;;;;5021257;28;20045;-75
2022/05/04 05:54:58;;;;;;;2.60;0.95;;;;;;;;;;5018525;28;20048;-74
2022/05/04 05:57:25;;;;;;;2.50;1.00;;;;;;;;;;5017173;28;20045;-73
2022/05/04 05:59:51;;;;;;;4.55;1.33;;;;;;;;;;5018916;28;20081;-74
2022/05/04 06:02:17;;;;;;;1.80;0.77;;;;;;;;;;5017656;28;20049;-73
2022/05/04 06:04:43;;;;;;;2.50;1.10;;;;;;;;;;5021416;28;20128;-71
2022/05/04 06:07:09;;;;;;;2.15;0.85;;;;;;;;;;5015706;28;20046;-71
2022/05/04 06:09:35;;;;;;;2.22;1.00;;;;;;;;;;5020842;28;20463;-72
2022/05/04 06:12:02;;;;;;;3.25;0.80;;;;;;;;;;5019479;28;20042;-73
2022/05/04 06:14:28;;;;;;;3.20;1.20;;;;;;;;;;5018892;28;20053;-74
2022/05/04 06:16:54;;;;;;;2.63;0.90;;;;;;;;;;5018605;28;20099;-72
2022/05/04 06:19:20;;;;;;;3.97;1.13;;;;;;;;;;5020723;28;20042;-73
2022/05/04 06:21:46;;;;;;;1.85;0.77;;;;;;;;;;5020962;28;20077;-73
2022/05/04 06:24:12;;;;;;;4.43;1.23;;;;;;;;;;5018413;28;20034;-73
2022/05/04 06:26:38;;;;;;;4.63;1.10;;;;;;;;;;5016742;28;20051;-73
2022/05/04 06:29:04;;;;;;;2.75;1.10;;;;;;;;;;5015045;28;20092;-73
2022/05/04 06:34:15;;;;;;;2.90;0.85;;;;;;;;;;5019054;28;20107;-73
2022/05/04 06:36:41;;;;;;;5.15;1.10;;;;;;;;;;5018748;28;20438;-72
2022/05/04 06:39:11;;;;;;;4.35;1.08;;;;;;;;;;5015541;28;20037;-72
2022/05/04 06:41:38;;;;;;;4.20;1.27;;;;;;;;;;5021818;28;20080;-73
2022/05/04 06:44:04;;;;;;;1.92;0.80;;;;;;;;;;5017073;28;20081;-73
2022/05/04 06:46:31;;;;;;;2.40;0.95;;;;;;;;;;5017191;28;20041;-73
2022/05/04 06:48:57;;;;;;;3.78;0.70;;;;;;;;;;5019535;28;20153;-73
2022/05/04 06:51:23;;;;;;;1.63;0.68;;;;;;;;;;5020822;28;20188;-72
2022/05/04 06:53:49;;;;;;;3.53;0.88;;;;;;;;;;5017752;28;20037;-71
2022/05/04 06:56:15;;;;;;;2.40;0.85;;;;;;;;;;5014991;28;20125;-71
2022/05/04 06:58:42;;;;;;;4.60;1.13;;;;;;;;;;5011028;28;20591;-69
2022/05/04 07:01:10;;;;;;;1.40;0.90;;;;;;;;;;5029834;28;20095;-70
2022/05/04 07:03:37;;;;;;;4.22;1.13;;;;;;;;;;5030275;28;20052;-71
2022/05/04 07:06:03;;;;;;;2.00;0.95;;;;;;;;;;5009261;28;20050;-73
2022/05/04 07:08:30;;;;;;;2.70;0.70;;;;;;;;;;5009557;28;20052;-72
2022/05/04 07:10:56;;;;;;;3.08;1.08;;;;;;;;;;5011623;28;20058;-73
2022/05/04 07:13:23;;;;;;;2.53;1.13;;;;;;;;;;5010106;28;20041;-72
2022/05/04 07:15:50;;;;;;;2.28;1.00;;;;;;;;;;5011287;28;20056;-72
2022/05/04 07:18:16;;;;;;;2.90;1.00;;;;;;;;;;5010391;28;20491;-71
2022/05/04 07:20:42;;;;;;;1.83;0.80;;;;;;;;;;5011612;28;20037;-71
2022/05/04 07:23:08;;;;;;;3.83;1.27;;;;;;;;;;5010307;28;20045;-71
2022/05/04 07:25:34;;;;;;;3.55;0.80;;;;;;;;;;5009912;28;20057;-73
2022/05/04 07:28:00;;;;;;;1.90;0.80;;;;;;;;;;5009337;28;20046;-73
2022/05/04 07:30:26;;;;;;;2.80;0.75;;;;;;;;;;5016546;28;20069;-73
2022/05/04 07:32:52;;;;;;;15.75;2.00;;;;;;;;;;5019350;28;20537;-76
2022/05/04 07:35:18;;;;;;;4.65;1.13;;;;;;;;;;5014032;28;20038;-71
2022/05/04 07:37:45;;;;;;;5.63;0.88;;;;;;;;;;5021399;28;20050;-74
2022/05/04 07:42:56;;;;;;;6.68;1.10;;;;;;;;;;5015864;28;20129;-74
2022/05/04 07:45:22;;;;;;;5.45;1.80;;;;;;;;;;5020022;28;20124;-73
2022/05/04 07:47:48;;;;;;;5.88;0.90;;;;;;;;;;5013373;28;20080;-76
2022/05/04 07:50:14;;;;;;;6.90;1.17;;;;;;;;;;5016642;28;20125;-70
2022/05/04 07:52:41;;;;;;;6.55;1.00;;;;;;;;;;5019518;28;20049;-72
2022/05/04 07:55:08;;;;;;;4.57;1.30;;;;;;;;;;5021098;28;20064;-73
2022/05/04 07:57:34;;;;;;;3.35;1.15;;;;;;;;;;5010128;28;20045;-72
2022/05/04 08:05:33;;;;;;;3.72;1.10;;;;;;;;;;5017122;28;20534;-72
2022/05/04 08:07:59;;;;;;;5.05;0.90;;;;;;;;;;5022988;28;20408;-71
2022/05/04 08:10:27;;;;;;;6.40;1.45;;;;;;;;;;5017064;28;20141;-70
2022/05/04 08:12:53;;;;;;;4.97;0.98;;;;;;;;;;5012225;28;20137;-71
2022/05/04 08:15:19;;;;;;;4.20;1.27;;;;;;;;;;5016670;28;20038;-71
2022/05/04 08:17:45;;;;;;;4.47;1.20;;;;;;;;;;5015920;28;20050;-72
2022/05/04 08:20:12;;;;;;;4.07;0.90;;;;;;;;;;5013135;28;20060;-70
2022/05/04 08:22:38;;;;;;;4.90;1.40;;;;;;;;;;5018922;28;20601;-69
2022/05/04 08:25:04;;;;;;;10.77;1.33;;;;;;;;;;5008805;28;20341;-71
2022/05/04 08:27:32;;;;;;;4.03;1.40;;;;;;;;;;5013456;28;20588;-71
2022/05/04 08:29:59;;;;;;;5.72;1.40;;;;;;;;;;5016354;28;20049;-71
2022/05/04 08:32:32;;;;;;;6.70;1.80;;;;;;;;;;5016285;28;20050;-71
2022/05/04 08:34:58;;;;;;;2.55;1.27;;;;;;;;;;5015148;28;20049;-71
2022/05/04 08:37:27;;;;;;;5.38;1.75;;;;;;;;;;5014941;28;20045;-68
2022/05/04 08:39:53;;;;;;;4.85;1.45;;;;;;;;;;5015275;28;20049;-69
2022/05/04 08:42:19;;;;;;;4.45;2.38;;;;;;;;;;5012533;28;20042;-68
2022/05/04 08:44:48;;;;;;;5.55;1.80;;;;;;;;;;5014163;28;20052;-70
2022/05/04 08:47:16;;;;;;;7.68;1.67;;;;;;;;;;5012309;28;20049;-70
2022/05/04 08:49:43;;;;;;;6.13;1.92;;;;;;;;;;5017315;28;20540;-69
2022/05/04 08:52:10;;;;;;;5.30;1.95;;;;;;;;;;5013894;28;20041;-67
2022/05/04 08:54:37;;;;;;;5.30;1.63;;;;;;;;;;5013462;28;20107;-67
2022/05/04 08:57:04;;;;;;;8.93;2.03;;;;;;;;;;5014033;28;20046;-67
2022/05/04 08:59:30;;;;;;;5.82;2.15;;;;;;;;;;5013769;28;20119;-69
2022/05/04 09:01:56;;;;;;;5.95;2.00;;;;;;;;;;5017401;28;20037;-72
2022/05/04 09:04:22;;;;;;;7.70;2.25;;;;;;;;;;5014097;28;20045;-71
2022/05/04 09:06:50;;;;;;;6.38;2.00;;;;;;;;;;5011183;28;20048;-72
2022/05/04 09:09:16;;;;;;;6.15;1.95;;;;;;;;;;5011720;28;20108;-72
2022/05/04 09:11:44;;;;;;;6.63;1.85;;;;;;;;;;5012497;28;20460;-72
2022/05/04 09:14:15;;;;;;;6.72;2.05;;;;;;;;;;5019246;28;20403;-74
2022/05/04 09:16:41;;;;;;;7.82;1.80;;;;;;;;;;5013763;28;20050;-72
2022/05/04 09:19:08;;;;;;;5.72;1.90;;;;;;;;;;5009971;28;20172;-71
2022/05/04 09:21:35;;;;;;;4.85;2.03;;;;;;;;;;5015536;28;20041;-69
2022/05/04 09:24:01;;;;;;;7.97;2.22;;;;;;;;;;5014202;28;20045;-70
2022/05/04 09:26:27;;;;;;;5.88;2.03;;;;;;;;;;5016090;28;21419;-70
2022/05/04 09:29:01;;;;;;;7.50;2.55;;;;;;;;;;5011582;28;20379;-70
2022/05/04 09:31:28;;;;;;;4.78;2.15;;;;;;;;;;5014885;28;20061;-68
2022/05/04 09:33:58;;;;;;;6.15;2.20;;;;;;;;;;5011988;28;20083;-71
2022/05/04 09:36:31;;;;;;;7.63;2.30;;;;;;;;;;5016263;28;20124;-71
2022/05/04 09:47:19;;;;;;;7.60;2.30;;;;;;;;;;4996646;28;20499;-70
2022/05/04 09:49:46;;;;;;;5.43;2.40;;;;;;;;;;4992891;28;20043;-70
2022/05/04 09:52:14;;;;;;;6.22;2.05;;;;;;;;;;4993874;28;20042;-71
2022/05/04 09:54:40;;;;;;;6.75;2.80;;;;;;;;;;4993819;28;20488;-70
2022/05/04 09:57:07;;;;;;;6.18;2.33;;;;;;;;;;4996935;28;20157;-72
2022/05/04 09:59:36;;;;;;;5.10;2.50;;;;;;;;;;4994932;28;20046;-72
2022/05/04 10:02:04;;;;;;;5.13;2.55;;;;;;;;;;4994181;28;20507;-71
2022/05/04 10:04:34;;;;;;;5.78;2.00;;;;;;;;;;4996459;28;20095;-70
2022/05/04 10:07:01;;;;;;;6.00;2.65;;;;;;;;;;4993255;28;20054;-71
2022/05/04 10:09:28;;;;;;;4.55;2.10;;;;;;;;;;4995269;28;20041;-70
2022/05/04 10:11:57;;;;;;;5.55;2.30;;;;;;;;;;4992339;28;20053;-69
2022/05/04 10:14:24;;;;;;;6.35;2.10;;;;;;;;;;4995385;28;20046;-69
2022/05/04 10:16:53;;;;;;;6.55;2.13;;;;;;;;;;4992734;28;20133;-70
2022/05/04 10:19:22;;;;;;;6.90;2.10;;;;;;;;;;4996655;28;20089;-70
2022/05/04 10:21:49;;;;;;;6.00;2.37;;;;;;;;;;4996462;28;20173;-70
2022/05/04 10:24:17;;;;;;;6.28;2.22;;;;;;;;;;4994015;28;20045;-72
2022/05/04 10:26:45;;;;;;;5.82;2.20;;;;;;;;;;4995321;28;20042;-70
2022/05/04 10:32:07;;;;;;;5.00;2.17;;;;;;;;;;4997200;28;20054;-71
2022/05/04 10:34:34;;;;;;;6.32;2.08;;;;;;;;;;4993370;28;20039;-71
2022/05/04 10:37:00;;;;;;;4.90;2.13;;;;;;;;;;4993406;28;20056;-73
2022/05/04 10:39:26;;;;;;;6.90;2.40;;;;;;;;;;4972751;28;21459;-71
2022/05/04 10:41:52;;;;;;;5.88;2.22;;;;;;;;;;4998615;28;20142;-73
2022/05/04 10:44:18;;;;;;;4.10;2.05;;;;;;;;;;4999363;28;20042;-71
2022/05/04 10:46:49;;;;;;;4.85;2.13;;;;;;;;;;4996128;28;20038;-70
2022/05/04 10:49:16;;;;;;;5.78;2.22;;;;;;;;;;4994056;28;20050;-69
2022/05/04 10:51:43;;;;;;;5.15;2.40;;;;;;;;;;4997523;28;20054;-70
2022/05/04 10:54:11;;;;;;;4.70;2.33;;;;;;;;;;4995285;28;20125;-72
2022/05/04 10:56:40;;;;;;;5.32;2.40;;;;;;;;;;4999102;28;20045;-70
2022/05/04 10:59:07;;;;;;;5.25;1.98;;;;;;;;;;4994281;28;20045;-70
2022/05/04 11:01:34;;;;;;;6.55;2.15;;;;;;;;;;4999396;28;20038;-70
2022/05/04 11:04:03;;;;;;;5.32;2.00;;;;;;;;;;4997048;28;20053;-70
2022/05/04 11:06:29;;;;;;;;;;;;;;;;;;4998213;28;20047;-69
2022/05/04 11:08:57;;;;;;;8.32;2.08;;;;;;;;;;4997850;28;19921;-73
2022/05/04 11:11:27;;;;;;;6.60;1.92;;;;;;;;;;4996842;28;20050;-73
2022/05/04 11:13:53;;;;;;;9.35;2.13;;;;;;;;;;4995857;28;20590;-71
2022/05/04 11:16:21;;;;;;;5.57;1.95;;;;;;;;;;4994321;28;20065;-71
2022/05/04 11:18:47;;;;;;;8.25;2.45;;;;;;;;;;4995479;28;20542;-71
2022/05/04 11:21:14;;;;;;;9.93;2.30;;;;;;;;;;4998029;28;20058;-71
2022/05/04 11:23:40;;;;;;;9.38;2.30;;;;;;;;;;4997305;28;20049;-72
2022/05/04 11:26:06;;;;;;;10.48;2.35;;;;;;;;;;4997865;28;20089;-72
2022/05/04 11:28:35;;;;;;;5.43;1.95;;;;;;;;;;4994858;28;20526;-72
2022/05/04 11:31:01;;;;;;;5.65;2.00;;;;;;;;;;4995009;28;20053;-72
2022/05/04 11:33:27;;;;;;;5.15;1.98;;;;;;;;;;4996260;28;20494;-71
2022/05/04 11:35:56;;;;;;;5.22;2.00;;;;;;;;;;4994854;28;20539;-71
2022/05/04 11:38:23;;;;;;;6.18;2.63;;;;;;;;;;4996074;28;20046;-72
2022/05/04 11:40:49;;;;;;;4.85;1.80;;;;;;;;;;4996182;28;20452;-71
2022/05/04 11:43:42;;;;;;;7.65;2.05;;;;;;;;;;4994250;28;20041;-70
2022/05/04 11:46:09;;;;;;;6.75;2.55;;;;;;;;;;4991686;28;20393;-69
2022/05/04 11:48:39;;;;;;;4.68;2.10;;;;;;;;;;4997231;28;20046;-69
2022/05/04 11:51:06;;;;;;;5.32;1.92;;;;;;;;;;4995548;28;20042;-70
2022/05/04 11:53:34;;;;;;;8.50;1.75;;;;;;;;;;4994271;28;20511;-70
2022/05/04 11:56:03;;;;;;;12.88;2.55;;;;;;;;;;4996839;28;20410;-69
2022/05/04 12:03:45;;;;;;;7.53;1.70;;;;;;;;;;5248802;22;23257;-66
2022/05/04 12:06:12;;;;;;;22.65;5.90;;;;;;;;;;5062120;22;20060;-70
2022/05/04 12:08:41;;;;;;;16.38;5.00;;;;;;;;;;5029477;28;20096;-70
2022/05/04 12:11:08;;;;;;;13.13;5.00;;;;;;;;;;5029882;28;20136;-69
2022/05/04 12:13:36;;;;;;;13.90;5.45;;;;;;;;;;5029959;28;20081;-69
2022/05/04 12:16:02;;;;;;;16.75;4.65;;;;;;;;;;5029505;28;20132;-68
2022/05/04 12:18:29;;;;;;;15.25;4.82;;;;;;;;;;5028107;28;20053;-68
2022/05/04 12:20:55;;;;;;;16.10;4.10;;;;;;;;;;5029030;28;20518;-68
2022/05/04 12:23:21;;;;;;;12.73;4.13;;;;;;;;;;5029639;28;20107;-69
2022/05/04 12:25:48;;;;;;;11.82;4.10;;;;;;;;;;5025986;28;20587;-69
2022/05/04 12:28:14;;;;;;;11.93;4.45;;;;;;;;;;5027594;28;20052;-70
2022/05/04 12:33:30;;;;;;;10.40;3.80;;;;;;;;;;5026931;28;20136;-70
2022/05/04 12:36:02;;;;;;;12.15;4.32;;;;;;;;;;5025675;28;20303;-70
2022/05/04 12:38:28;;;;;;;10.55;3.55;;;;;;;;;;5026530;28;20521;-69
2022/05/04 12:40:54;;;;;;;17.17;5.60;;;;;;;;;;5026145;28;21095;-71
2022/05/04 12:43:22;;;;;;;15.75;6.40;;;;;;;;;;5027664;28;20081;-70
2022/05/04 12:45:48;;;;;;;19.05;5.22;;;;;;;;;;5026907;28;20447;-69
2022/05/04 12:48:14;;;;;;;12.57;5.00;;;;;;;;;;5026660;28;20067;-69
2022/05/04 12:50:40;;;;;;;12.98;4.75;;;;;;;;;;5026257;28;20050;-69
2022/05/04 12:53:06;;;;;;;10.43;4.90;;;;;;;;;;5026473;28;20073;-69
2022/05/04 12:58:35;;;;;;;16.88;6.15;;;;;;;;;;4999877;28;20051;-67
2022/05/04 13:01:01;;;;;;;16.83;6.30;;;;;;;;;;5018544;28;20415;-66
2022/05/04 13:03:27;;;;;;;15.07;6.07;;;;;;;;;;5026249;28;20087;-70
2022/05/04 13:05:53;;;;;;;19.83;6.90;;;;;;;;;;5024686;28;20049;-69
2022/05/04 13:08:20;;;;;;;16.23;5.65;;;;;;;;;;5026679;28;20458;-68
2022/05/04 13:10:48;;;;;;;17.90;6.03;;;;;;;;;;5025867;28;20042;-69
2022/05/04 13:13:15;;;;;;;17.45;6.25;;;;;;;;;;5024647;28;20415;-68
2022/05/04 13:15:41;;;;;;;13.77;5.57;;;;;;;;;;5026996;28;20041;-68
2022/05/04 13:18:08;;;;;;;15.43;6.20;;;;;;;;;;5027250;28;20042;-68
2022/05/04 13:20:34;;;;;;;15.48;6.65;;;;;;;;;;5026581;28;20045;-68
2022/05/04 13:23:00;;;;;;;15.15;5.78;;;;;;;;;;5026977;28;20128;-68
2022/05/04 13:25:26;;;;;;;18.40;5.38;;;;;;;;;;5027413;28;20487;-68
2022/05/04 13:27:53;;;;;;;14.98;6.10;;;;;;;;;;5026343;28;21830;-68
2022/05/04 13:30:19;;;;;;;17.63;6.82;;;;;;;;;;5026279;28;20140;-69
2022/05/04 13:32:45;;;;;;;15.18;6.10;;;;;;;;;;5026578;28;20128;-69
2022/05/04 13:35:13;;;;;;;18.73;6.75;;;;;;;;;;5027357;28;20139;-69
2022/05/04 13:37:39;;;;;;;16.07;6.10;;;;;;;;;;5025594;28;20049;-69
2022/05/04 13:40:06;;;;;;;14.80;5.70;;;;;;;;;;5024818;28;20077;-71
2022/05/04 13:42:32;;;;;;;15.50;5.90;;;;;;;;;;5026060;28;20107;-70
2022/05/04 13:44:58;;;;;;;13.77;5.78;;;;;;;;;;5026775;28;20094;-72
2022/05/04 13:47:24;;;;;;;14.32;5.60;;;;;;;;;;5024909;28;20057;-70
2022/05/04 13:49:50;;;;;;;14.38;5.88;;;;;;;;;;5026094;28;20045;-69
2022/05/04 13:55:01;;;;;;;16.95;5.55;;;;;;;;;;5026462;28;20037;-67
2022/05/04 13:57:28;;;;;;;15.77;5.25;;;;;;;;;;5026299;28;20049;-69
2022/05/04 13:59:54;;;;;;;18.27;6.03;;;;;;;;;;5025891;28;20115;-69
2022/05/04 14:02:21;;;;;;;14.05;5.50;;;;;;;;;;5025868;28;20891;-71
2022/05/04 14:04:47;;;;;;;10.60;4.97;;;;;;;;;;5026433;28;20653;-72
2022/05/04 14:07:13;;;;;;;12.10;4.70;;;;;;;;;;5008456;28;20509;-69
2022/05/04 14:09:39;;;;;;;12.70;5.07;;;;;;;;;;5030065;28;20045;-68
2022/05/04 14:12:06;;;;;;;11.77;4.63;;;;;;;;;;5025902;28;20042;-69
2022/05/04 14:17:17;;;;;;;10.98;5.18;;;;;;;;;;5031525;28;20053;-69
2022/05/04 14:19:43;;;;;;;11.27;4.80;;;;;;;;;;5030925;28;20119;-68
2022/05/04 14:22:09;;;;;;;11.70;4.47;;;;;;;;;;5026496;28;20046;-69
2022/05/04 14:24:35;;;;;;;11.43;5.07;;;;;;;;;;5012281;28;20075;-69
2022/05/04 14:27:01;;;;;;;11.40;4.18;;;;;;;;;;5011918;28;20475;-68
2022/05/04 14:29:27;;;;;;;9.90;4.43;;;;;;;;;;4994184;28;20050;-68
2022/05/04 14:31:54;;;;;;;9.38;4.30;;;;;;;;;;5010607;28;20050;-67
2022/05/04 14:34:20;;;;;;;9.10;4.50;;;;;;;;;;5026644;28;20441;-67
2022/05/04 14:36:46;;;;;;;9.93;4.20;;;;;;;;;;5029956;28;20817;-68
2022/05/04 14:39:12;;;;;;;9.80;4.10;;;;;;;;;;5029479;28;20041;-69
2022/05/04 14:41:38;;;;;;;10.60;4.07;;;;;;;;;;5032359;28;20115;-70
2022/05/04 14:44:04;;;;;;;10.25;4.82;;;;;;;;;;5030392;28;20418;-70
2022/05/04 14:46:30;;;;;;;11.93;4.82;;;;;;;;;;5029176;28;20486;-68
2022/05/04 14:48:56;;;;;;;9.98;3.97;;;;;;;;;;5029953;28;20403;-67
2022/05/04 14:51:22;;;;;;;9.40;3.90;;;;;;;;;;5000154;28;20384;-68
2022/05/04 14:53:51;;;;;;;10.65;4.43;;;;;;;;;;5029794;28;20034;-68
2022/05/04 14:56:20;;;;;;;8.80;3.57;;;;;;;;;;5030004;28;20406;-67
2022/05/04 14:58:47;;;;;;;8.43;3.92;;;;;;;;;;5028187;28;20061;-67
2022/05/04 15:01:13;;;;;;;10.73;4.22;;;;;;;;;;5011500;28;20142;-69
2022/05/04 15:06:24;;;;;;;9.38;3.65;;;;;;;;;;5029461;28;20054;-70
2022/05/04 15:08:50;;;;;;;7.80;3.40;;;;;;;;;;5026612;28;20045;-70
2022/05/04 15:11:16;;;;;;;9.30;3.78;;;;;;;;;;5026157;28;20120;-68
2022/05/04 15:13:42;;;;;;;10.13;4.28;;;;;;;;;;5018954;28;20049;-68
2022/05/04 15:16:08;;;;;;;8.70;3.58;;;;;;;;;;5028990;28;20095;-68
2022/05/04 15:18:34;;;;;;;9.05;4.50;;;;;;;;;;5028044;28;20057;-68
2022/05/04 15:21:01;;;;;;;8.20;4.00;;;;;;;;;;5029303;28;20034;-69
2022/05/04 15:23:28;;;;;;;7.97;3.67;;;;;;;;;;5029177;28;20487;-67
2022/05/04 15:25:54;;;;;;;7.47;3.83;;;;;;;;;;5028726;28;20048;-67
2022/05/04 15:28:20;;;;;;;10.15;4.20;;;;;;;;;;5028898;28;20045;-68
2022/05/04 15:30:49;;;;;;;8.40;3.97;;;;;;;;;;5026014;28;20045;-68
2022/05/04 15:33:15;;;;;;;9.02;3.83;;;;;;;;;;5028732;28;20120;-68